createdAt,value
2018-07-13T00:01:50.534Z,20.30
2018-07-13T00:06:54.190Z,20.30
2018-07-13T00:11:57.790Z,20.20
2018-07-13T00:17:01.316Z,20.00
2018-07-13T00:22:04.836Z,19.90
2018-07-13T00:27:08.420Z,19.80
2018-07-13T00:32:11.923Z,19.80
2018-07-13T00:37:15.532Z,19.80
2018-07-13T00:42:19.055Z,19.80
2018-07-13T00:47:22.660Z,19.60
2018-07-13T00:52:26.161Z,19.50
2018-07-13T00:57:29.704Z,19.50
2018-07-13T01:02:33.211Z,19.40
2018-07-13T01:07:36.754Z,19.40
2018-07-13T01:12:40.330Z,19.40
2018-07-13T01:17:43.860Z,19.40
2018-07-13T01:22:47.371Z,19.30
2018-07-13T01:27:50.886Z,19.20
2018-07-13T01:32:54.424Z,19.20
2018-07-13T01:37:58.270Z,19.10
2018-07-13T01:43:01.800Z,19.10
2018-07-13T01:48:05.384Z,19.00
2018-07-13T01:53:08.939Z,19.10
2018-07-13T01:58:12.471Z,19.10
2018-07-13T02:03:15.980Z,19.10
2018-07-13T02:08:19.510Z,19.10
2018-07-13T02:13:23.147Z,19.20
2018-07-13T02:18:26.680Z,19.10
2018-07-13T02:23:30.550Z,19.00
2018-07-13T02:28:34.080Z,18.80
2018-07-13T02:33:37.620Z,18.70
2018-07-13T02:38:41.145Z,18.70
2018-07-13T02:43:44.714Z,18.70
2018-07-13T02:48:48.357Z,18.50
2018-07-13T02:53:52.749Z,18.50
2018-07-13T02:58:56.265Z,18.40
2018-07-13T03:03:59.875Z,18.40
2018-07-13T03:09:04.566Z,18.40
2018-07-13T03:14:08.512Z,18.40
2018-07-13T03:19:12.024Z,18.30
2018-07-13T03:24:15.556Z,18.30
2018-07-13T03:29:19.065Z,18.30
2018-07-13T03:34:22.650Z,18.30
2018-07-13T03:39:26.287Z,18.20
2018-07-13T03:44:29.934Z,18.10
2018-07-13T03:49:34.131Z,18.10
2018-07-13T03:54:37.738Z,18.00
2018-07-13T03:59:42.299Z,18.00
2018-07-13T04:04:46.004Z,17.90
2018-07-13T04:09:49.912Z,17.90
2018-07-13T04:14:53.575Z,17.90
2018-07-13T04:19:57.146Z,17.90
2018-07-13T04:25:00.760Z,17.90
2018-07-13T04:30:04.856Z,17.90
2018-07-13T04:35:08.451Z,17.90
2018-07-13T04:40:11.956Z,18.00
2018-07-13T04:50:18.933Z,18.30
2018-07-13T04:55:22.519Z,18.40
2018-07-13T05:00:26.143Z,18.50
2018-07-13T05:05:29.744Z,18.60
2018-07-13T05:10:33.637Z,18.70
2018-07-13T05:15:37.231Z,18.80
2018-07-13T05:20:40.855Z,18.90
2018-07-13T05:25:44.546Z,19.10
2018-07-13T05:30:49.125Z,19.20
2018-07-13T05:35:56.195Z,19.40
2018-07-13T05:40:59.836Z,19.60
2018-07-13T05:46:03.452Z,19.70
2018-07-13T05:51:07.450Z,19.80
2018-07-13T05:56:11.079Z,19.90
2018-07-13T06:01:14.728Z,20.10
2018-07-13T06:06:18.403Z,20.30
2018-07-13T06:11:22.084Z,20.50
2018-07-13T06:16:25.595Z,20.50
2018-07-13T06:21:29.145Z,20.60
2018-07-13T06:26:32.891Z,20.80
2018-07-13T06:31:36.715Z,21.00
2018-07-13T06:36:40.339Z,21.20
2018-07-13T06:41:43.982Z,21.10
2018-07-13T06:46:48.760Z,21.20
2018-07-13T06:51:52.354Z,21.30
2018-07-13T06:56:55.933Z,21.40
2018-07-13T07:02:00.269Z,21.40
2018-07-13T07:07:16.996Z,21.40
2018-07-13T07:12:58.939Z,21.60
2018-07-13T07:18:02.521Z,21.70
2018-07-13T07:23:06.129Z,21.60
2018-07-13T07:28:09.714Z,21.90
2018-07-13T07:33:13.274Z,22.00
2018-07-13T07:38:16.828Z,22.10
2018-07-13T07:43:21.094Z,21.90
2018-07-13T07:48:24.639Z,22.00
2018-07-13T07:53:28.201Z,22.30
2018-07-13T07:58:31.711Z,22.50
2018-07-13T08:03:35.291Z,22.70
2018-07-13T08:08:38.853Z,22.80
2018-07-13T08:13:42.423Z,22.90
2018-07-13T08:18:50.789Z,23.30
2018-07-13T08:28:57.666Z,23.70
2018-07-13T08:34:01.355Z,24.00
2018-07-13T08:39:06.923Z,24.00
2018-07-13T08:44:10.527Z,24.20
2018-07-13T08:49:14.150Z,24.30
2018-07-13T08:54:17.794Z,24.20
2018-07-13T09:04:25.340Z,24.50
2018-07-13T09:09:28.867Z,24.40
2018-07-13T09:14:33.529Z,24.50
2018-07-13T09:19:37.276Z,24.90
2018-07-13T09:24:40.883Z,25.00
2018-07-13T09:29:44.430Z,25.40
2018-07-13T09:34:48.036Z,25.60
2018-07-13T09:39:51.824Z,25.50
2018-07-13T09:49:58.941Z,26.10
2018-07-13T09:55:06.725Z,26.10
2018-07-13T10:00:11.659Z,26.00
2018-07-13T10:05:15.515Z,26.00
2018-07-13T10:10:19.763Z,26.20
2018-07-13T10:15:23.383Z,26.20
2018-07-13T10:20:27.370Z,26.60
2018-07-13T10:25:31.543Z,27.20
2018-07-13T10:30:37.483Z,27.60
2018-07-13T10:35:41.860Z,27.90
2018-07-13T10:40:45.408Z,28.30
2018-07-13T10:45:49.516Z,28.50
2018-07-13T10:50:53.300Z,29.00
2018-07-13T10:56:00.383Z,29.40
2018-07-13T11:01:03.916Z,29.50
2018-07-13T11:06:09.510Z,29.70
2018-07-13T11:11:13.315Z,29.80
2018-07-13T11:16:16.819Z,30.20
2018-07-13T11:21:20.818Z,30.00
2018-07-13T11:26:26.796Z,29.90
2018-07-13T11:31:30.368Z,29.90
2018-07-13T11:41:37.962Z,29.20
2018-07-13T11:46:41.864Z,29.30
2018-07-13T11:51:45.373Z,29.40
2018-07-13T11:56:49.320Z,30.00
2018-07-13T12:01:55.105Z,30.00
2018-07-13T12:06:58.837Z,29.70
2018-07-13T12:12:03.647Z,30.00
2018-07-13T12:17:07.636Z,30.50
2018-07-13T12:22:11.664Z,30.80
2018-07-13T12:27:15.685Z,30.60
2018-07-13T12:32:19.335Z,30.90
2018-07-13T12:37:22.991Z,31.70
2018-07-13T12:42:27.836Z,32.10
2018-07-13T12:47:31.861Z,32.30
2018-07-13T12:52:35.403Z,31.90
2018-07-13T12:57:38.949Z,32.40
2018-07-13T13:02:43.380Z,32.80
2018-07-13T13:07:47.079Z,33.00
2018-07-13T13:12:51.594Z,33.20
2018-07-13T13:17:55.518Z,33.50
2018-07-13T13:23:06.023Z,33.10
2018-07-13T13:28:10.051Z,33.30
2018-07-13T13:33:13.631Z,33.10
2018-07-13T13:38:17.598Z,32.80
2018-07-13T13:43:21.165Z,32.80
2018-07-13T13:48:24.761Z,32.30
2018-07-13T13:53:29.344Z,32.40
2018-07-13T13:58:34.648Z,32.10
2018-07-13T14:03:38.607Z,32.90
2018-07-13T14:08:42.678Z,32.80
2018-07-13T14:13:46.461Z,33.40
2018-07-13T14:18:50.040Z,33.00
2018-07-13T14:23:53.601Z,33.10
2018-07-13T14:28:57.427Z,33.20
2018-07-13T14:34:00.983Z,33.70
2018-07-13T14:39:05.416Z,33.80
2018-07-13T14:44:09.784Z,33.60
2018-07-13T14:49:13.329Z,33.40
2018-07-13T14:54:16.880Z,33.60
2018-07-13T14:59:20.812Z,34.30
2018-07-13T15:04:24.438Z,33.20
2018-07-13T15:09:27.995Z,32.80
2018-07-13T15:14:31.807Z,32.70
2018-07-13T15:19:35.827Z,33.30
2018-07-13T15:24:40.431Z,34.30
2018-07-13T15:29:47.767Z,35.10
2018-07-13T15:34:51.392Z,34.40
2018-07-13T15:39:54.997Z,34.00
2018-07-13T15:45:01.560Z,34.20
2018-07-13T15:50:06.310Z,33.90
2018-07-13T15:55:10.610Z,33.70
2018-07-13T16:00:14.164Z,33.90
2018-07-13T16:05:17.825Z,33.80
2018-07-13T16:10:24.416Z,33.60
2018-07-13T16:15:28.210Z,33.50
2018-07-13T16:20:33.193Z,33.60
2018-07-13T16:25:36.770Z,33.80
2018-07-13T16:30:41.872Z,33.40
2018-07-13T16:35:47.620Z,33.90
2018-07-13T16:40:51.163Z,34.20
2018-07-13T16:45:54.716Z,34.10
2018-07-13T16:50:58.625Z,34.10
2018-07-13T16:56:02.122Z,34.20
2018-07-13T17:01:06.064Z,33.80
2018-07-13T17:06:10.099Z,33.90
2018-07-13T17:11:14.139Z,33.90
2018-07-13T17:16:17.660Z,34.00
2018-07-13T17:21:24.838Z,34.10
2018-07-13T17:26:28.445Z,34.00
2018-07-13T17:31:32.083Z,33.50
2018-07-13T17:36:35.947Z,33.30
2018-07-13T17:41:39.540Z,33.00
2018-07-13T17:46:43.323Z,32.90
2018-07-13T17:51:47.155Z,32.80
2018-07-13T17:56:50.737Z,32.60
2018-07-13T18:01:54.578Z,32.50
2018-07-13T18:06:58.600Z,32.40
2018-07-13T18:12:02.331Z,32.40
2018-07-13T18:17:05.944Z,32.20
2018-07-13T18:22:09.530Z,31.90
2018-07-13T18:27:13.518Z,31.80
2018-07-13T18:32:17.791Z,31.50
2018-07-13T18:37:21.364Z,31.10
2018-07-13T18:42:25.226Z,31.00
2018-07-13T18:47:47.283Z,30.90
2018-07-13T18:52:51.115Z,30.70
2018-07-13T18:57:54.723Z,30.40
2018-07-13T19:03:00.218Z,30.10
2018-07-13T19:08:03.970Z,29.80
2018-07-13T19:13:07.755Z,29.50
2018-07-13T19:18:11.949Z,29.30
2018-07-13T19:23:15.643Z,29.10
2018-07-13T19:28:19.234Z,28.90
2018-07-13T19:33:23.221Z,28.60
2018-07-13T19:38:26.759Z,28.40
2018-07-13T19:43:30.708Z,28.10
2018-07-13T19:48:34.390Z,27.90
2018-07-13T19:53:38.472Z,27.70
2018-07-13T19:58:41.985Z,27.50
2018-07-13T20:03:46.414Z,27.30
2018-07-13T20:08:50.353Z,27.20
2018-07-13T20:13:54.165Z,27.00
2018-07-13T20:18:58.027Z,26.90
2018-07-13T20:24:02.721Z,26.80
2018-07-13T20:29:06.263Z,26.70
2018-07-13T20:34:11.522Z,26.30
2018-07-13T20:39:15.659Z,26.10
2018-07-13T20:44:19.224Z,26.10
2018-07-13T20:49:22.759Z,25.80
2018-07-13T20:54:26.499Z,25.70
2018-07-13T20:59:30.056Z,25.60
2018-07-13T21:04:34.271Z,25.50
2018-07-13T21:09:38.351Z,25.20
2018-07-13T21:14:42.023Z,25.40
2018-07-13T21:19:45.913Z,25.50
2018-07-13T21:24:49.619Z,25.40
2018-07-13T21:29:53.677Z,25.30
2018-07-13T21:34:57.404Z,25.30
2018-07-13T21:40:00.930Z,25.20
2018-07-13T21:45:05.486Z,25.40
2018-07-13T21:50:09.031Z,25.50
2018-07-13T21:55:12.547Z,25.50
2018-07-13T22:05:26.250Z,25.20
2018-07-13T22:10:30.907Z,25.20
2018-07-13T22:15:34.428Z,25.20
2018-07-13T22:20:37.970Z,25.10
2018-07-13T22:25:42.382Z,25.00
2018-07-13T22:30:45.894Z,24.80
2018-07-13T22:40:52.739Z,24.60
2018-07-13T22:45:56.672Z,24.50
2018-07-13T22:51:00.295Z,24.40
2018-07-13T22:56:04.366Z,24.30
2018-07-13T23:01:09.773Z,24.20
2018-07-13T23:06:15.207Z,24.20
2018-07-13T23:11:18.923Z,24.10
2018-07-13T23:16:22.866Z,24.10
2018-07-13T23:21:27.064Z,23.90
2018-07-13T23:26:30.636Z,23.80
2018-07-13T23:31:34.802Z,23.80
2018-07-13T23:36:38.709Z,23.80
2018-07-13T23:41:42.236Z,23.80
2018-07-13T23:46:46.412Z,23.80
2018-07-13T23:51:49.967Z,23.60
2018-07-13T23:56:53.547Z,22.80
